createdAt,value
2022-09-28T00:01:17.524Z,94.02
2022-09-28T00:03:48.244Z,94.74
2022-09-28T00:06:16.802Z,95.23
2022-09-28T00:08:43.334Z,96.06
2022-09-28T00:11:12.886Z,96.83
2022-09-28T00:13:40.314Z,97.11
2022-09-28T00:16:08.995Z,97.15
2022-09-28T00:18:36.195Z,97.60
2022-09-28T00:21:11.166Z,97.21
2022-09-28T00:23:56.221Z,96.82
2022-09-28T00:26:23.287Z,97.40
2022-09-28T00:28:54.004Z,97.64
2022-09-28T00:31:21.296Z,98.05
2022-09-28T00:33:52.065Z,97.46
2022-09-28T00:36:21.201Z,96.96
2022-09-28T00:38:48.389Z,97.83
2022-09-28T00:41:16.089Z,97.07
2022-09-28T00:43:46.223Z,97.67
2022-09-28T00:46:23.792Z,97.75
2022-09-28T00:48:57.883Z,97.48
2022-09-28T00:51:25.576Z,97.33
2022-09-28T00:53:56.186Z,97.53
2022-09-28T00:56:25.507Z,97.44
2022-09-28T00:58:53.486Z,96.12
2022-09-28T01:01:20.603Z,96.44
2022-09-28T01:03:50.817Z,96.20
2022-09-28T01:06:20.502Z,96.74
2022-09-28T01:08:50.555Z,97.38
2022-09-28T01:11:18.637Z,97.53
2022-09-28T01:13:46.596Z,97.88
2022-09-28T01:16:28.539Z,98.22
2022-09-28T01:19:24.797Z,98.90
2022-09-28T01:22:01.843Z,98.53
2022-09-28T01:24:41.032Z,98.73
2022-09-28T01:27:16.006Z,98.65
2022-09-28T01:30:04.967Z,98.73
2022-09-28T01:32:50.107Z,98.15
2022-09-28T01:35:31.825Z,98.64
2022-09-28T01:38:17.289Z,99.77
2022-09-28T01:40:44.530Z,100.00
2022-09-28T01:43:18.107Z,100.00
2022-09-28T01:45:47.907Z,100.00
2022-09-28T01:48:19.550Z,100.00
2022-09-28T01:50:48.582Z,100.00
2022-09-28T01:53:35.508Z,100.00
2022-09-28T01:56:24.461Z,100.00
2022-09-28T01:58:55.477Z,100.00
2022-09-28T02:01:28.330Z,100.00
2022-09-28T02:04:07.160Z,100.00
2022-09-28T02:06:42.105Z,100.00
2022-09-28T02:09:11.914Z,100.00
2022-09-28T02:11:42.461Z,100.00
2022-09-28T02:14:11.623Z,100.00
2022-09-28T02:16:41.833Z,100.00
2022-09-28T02:19:17.975Z,100.00
2022-09-28T02:22:03.080Z,100.00
2022-09-28T02:24:39.543Z,100.00
2022-09-28T02:27:14.796Z,100.00
2022-09-28T02:29:41.530Z,100.00
2022-09-28T02:32:07.990Z,100.00
2022-09-28T02:34:35.449Z,100.00
2022-09-28T02:37:02.099Z,100.00
2022-09-28T02:39:28.521Z,100.00
2022-09-28T02:42:29.744Z,100.00
2022-09-28T02:45:24.674Z,100.00
2022-09-28T02:48:19.101Z,100.00
2022-09-28T02:51:01.043Z,100.00
2022-09-28T02:54:06.234Z,100.00
2022-09-28T02:56:47.483Z,100.00
2022-09-28T02:59:24.424Z,100.00
2022-09-28T03:02:06.574Z,100.00
2022-09-28T03:04:37.533Z,100.00
2022-09-28T03:07:07.568Z,100.00
2022-09-28T03:09:37.898Z,100.00
2022-09-28T03:12:08.830Z,100.00
2022-09-28T03:14:35.492Z,100.00
2022-09-28T03:17:01.980Z,100.00
2022-09-28T03:19:32.471Z,100.00
2022-09-28T03:21:59.592Z,100.00
2022-09-28T03:24:26.365Z,100.00
2022-09-28T03:26:52.822Z,100.00
2022-09-28T03:29:20.486Z,98.30
2022-09-28T03:31:47.902Z,98.16
2022-09-28T03:34:14.516Z,98.88
2022-09-28T03:36:40.958Z,99.59
2022-09-28T03:39:07.381Z,99.99
2022-09-28T03:41:33.852Z,100.00
2022-09-28T03:44:00.326Z,100.00
2022-09-28T03:46:27.378Z,100.00
2022-09-28T03:48:57.682Z,100.00
2022-09-28T03:51:24.106Z,100.00
2022-09-28T03:53:50.514Z,100.00
2022-09-28T03:56:17.482Z,100.00
2022-09-28T03:58:43.914Z,100.00
2022-09-28T04:01:16.905Z,100.00
2022-09-28T04:03:44.586Z,100.00
2022-09-28T04:06:11.363Z,100.00
2022-09-28T04:08:37.803Z,100.00
2022-09-28T04:11:04.348Z,100.00
2022-09-28T04:13:31.017Z,100.00
2022-09-28T04:15:59.809Z,100.00
2022-09-28T04:18:26.488Z,100.00
2022-09-28T04:21:06.661Z,100.00
2022-09-28T04:23:35.369Z,100.00
2022-09-28T04:26:03.984Z,100.00
2022-09-28T04:28:48.923Z,100.00
2022-09-28T04:31:18.193Z,100.00
2022-09-28T04:33:44.700Z,100.00
2022-09-28T04:36:11.225Z,100.00
2022-09-28T04:38:52.350Z,100.00
2022-09-28T04:41:19.819Z,100.00
2022-09-28T04:43:50.035Z,100.00
2022-09-28T04:46:16.701Z,100.00
2022-09-28T04:48:43.250Z,100.00
2022-09-28T04:51:09.695Z,100.00
2022-09-28T04:53:36.195Z,100.00
2022-09-28T04:56:08.159Z,100.00
2022-09-28T04:58:35.708Z,100.00
2022-09-28T05:01:08.530Z,100.00
2022-09-28T05:03:35.208Z,100.00
2022-09-28T05:06:01.656Z,100.00
2022-09-28T05:08:28.096Z,100.00
2022-09-28T05:11:02.657Z,100.00
2022-09-28T05:13:29.643Z,100.00
2022-09-28T05:16:00.608Z,100.00
2022-09-28T05:18:29.844Z,100.00
2022-09-28T05:20:56.263Z,100.00
2022-09-28T05:23:22.697Z,100.00
2022-09-28T05:25:49.242Z,100.00
2022-09-28T05:28:27.236Z,100.00
2022-09-28T05:30:55.551Z,100.00
2022-09-28T05:33:22.012Z,100.00
2022-09-28T05:35:54.410Z,100.00
2022-09-28T05:38:22.893Z,100.00
2022-09-28T05:40:49.594Z,100.00
2022-09-28T05:43:16.054Z,100.00
2022-09-28T05:45:42.663Z,100.00
2022-09-28T05:48:09.114Z,100.00
2022-09-28T05:50:35.822Z,100.00
2022-09-28T05:53:08.351Z,100.00
2022-09-28T05:55:36.136Z,100.00
2022-09-28T05:58:04.876Z,100.00
2022-09-28T06:00:33.290Z,100.00
2022-09-28T06:03:21.300Z,100.00
2022-09-28T06:05:47.787Z,100.00
2022-09-28T06:08:14.271Z,100.00
2022-09-28T06:10:40.968Z,100.00
2022-09-28T06:13:08.014Z,100.00
2022-09-28T06:15:35.692Z,100.00
2022-09-28T06:18:04.685Z,100.00
2022-09-28T06:20:36.611Z,100.00
2022-09-28T06:23:03.437Z,100.00
2022-09-28T06:25:29.890Z,100.00
2022-09-28T06:28:04.784Z,100.00
2022-09-28T06:30:33.445Z,100.00
2022-09-28T06:33:01.941Z,100.00
2022-09-28T06:35:30.450Z,100.00
2022-09-28T06:37:57.741Z,100.00
2022-09-28T06:40:24.947Z,100.00
2022-09-28T06:43:12.539Z,100.00
2022-09-28T06:45:39.240Z,100.00
2022-09-28T06:48:06.575Z,100.00
2022-09-28T06:50:35.939Z,100.00
2022-09-28T06:53:02.548Z,100.00
2022-09-28T06:55:29.130Z,100.00
2022-09-28T06:58:00.399Z,100.00
2022-09-28T07:00:28.531Z,100.00
2022-09-28T07:02:54.977Z,100.00
2022-09-28T07:05:26.699Z,100.00
2022-09-28T07:07:59.011Z,100.00
2022-09-28T07:10:28.457Z,100.00
2022-09-28T07:12:56.653Z,100.00
2022-09-28T07:15:24.043Z,100.00
2022-09-28T07:18:00.710Z,100.00
2022-09-28T07:20:28.729Z,100.00
2022-09-28T07:22:56.412Z,100.00
2022-09-28T07:25:24.314Z,100.00
2022-09-28T07:27:50.749Z,100.00
2022-09-28T07:30:17.644Z,100.00
2022-09-28T07:32:45.356Z,100.00
2022-09-28T07:35:11.780Z,100.00
2022-09-28T07:37:38.932Z,100.00
2022-09-28T07:40:25.881Z,100.00
2022-09-28T07:42:52.464Z,100.00
2022-09-28T07:45:20.752Z,100.00
2022-09-28T07:47:47.205Z,100.00
2022-09-28T07:50:13.702Z,100.00
2022-09-28T07:52:40.156Z,100.00
2022-09-28T07:55:07.601Z,100.00
2022-09-28T07:57:34.767Z,100.00
2022-09-28T08:00:02.279Z,100.00
2022-09-28T08:02:28.847Z,100.00
2022-09-28T08:04:56.375Z,100.00
2022-09-28T08:07:24.178Z,100.00
2022-09-28T08:09:51.084Z,100.00
2022-09-28T08:12:19.702Z,100.00
2022-09-28T08:14:47.109Z,100.00
2022-09-28T08:17:13.667Z,100.00
2022-09-28T08:19:58.509Z,100.00
2022-09-28T08:22:24.957Z,100.00
2022-09-28T08:24:51.463Z,100.00
2022-09-28T08:27:18.425Z,100.00
2022-09-28T08:29:44.882Z,100.00
2022-09-28T08:32:11.309Z,100.00
2022-09-28T08:34:39.035Z,100.00
2022-09-28T08:37:06.300Z,100.00
2022-09-28T08:39:34.529Z,100.00
2022-09-28T08:42:36.064Z,100.00
2022-09-28T08:45:08.434Z,100.00
2022-09-28T08:48:02.673Z,100.00
2022-09-28T08:50:32.116Z,99.42
2022-09-28T08:53:07.407Z,100.00
2022-09-28T08:55:37.267Z,99.32
2022-09-28T08:58:28.279Z,100.00
2022-09-28T09:00:54.813Z,100.00
2022-09-28T09:03:23.790Z,100.00
2022-09-28T09:06:18.622Z,100.00
2022-09-28T09:09:10.882Z,100.00
2022-09-28T09:12:14.967Z,100.00
2022-09-28T09:14:50.602Z,100.00
2022-09-28T09:17:35.865Z,99.22
2022-09-28T09:20:05.277Z,100.00
2022-09-28T09:22:48.545Z,100.00
2022-09-28T09:25:20.799Z,100.00
2022-09-28T09:28:07.924Z,100.00
2022-09-28T09:30:47.093Z,98.85
2022-09-28T09:33:42.350Z,99.28
2022-09-28T09:36:30.297Z,100.00
2022-09-28T09:39:06.720Z,100.00
2022-09-28T09:41:38.971Z,100.00
2022-09-28T09:44:15.975Z,99.79
2022-09-28T09:46:56.784Z,100.00
2022-09-28T09:49:24.636Z,99.76
2022-09-28T09:52:10.072Z,99.27
2022-09-28T09:54:44.624Z,100.00
2022-09-28T09:57:19.608Z,100.00
2022-09-28T09:59:47.454Z,100.00
2022-09-28T10:02:26.291Z,100.00
2022-09-28T10:04:56.102Z,97.67
2022-09-28T10:07:26.728Z,100.00
2022-09-28T10:09:57.080Z,100.00
2022-09-28T10:12:24.362Z,98.65
2022-09-28T10:14:50.881Z,100.00
2022-09-28T10:17:20.146Z,99.22
2022-09-28T10:19:46.731Z,98.00
2022-09-28T10:22:21.709Z,98.46
2022-09-28T10:24:51.265Z,98.38
2022-09-28T10:27:20.072Z,97.09
2022-09-28T10:29:53.626Z,95.79
2022-09-28T10:32:25.451Z,95.00
2022-09-28T10:34:53.173Z,96.46
2022-09-28T10:37:19.664Z,94.85
2022-09-28T10:39:51.202Z,95.36
2022-09-28T10:42:29.779Z,94.68
2022-09-28T10:45:25.615Z,95.98
2022-09-28T10:47:52.222Z,95.24
2022-09-28T10:50:26.772Z,95.86
2022-09-28T10:52:53.315Z,96.42
2022-09-28T10:55:28.951Z,93.69
2022-09-28T10:57:55.419Z,96.29
2022-09-28T11:00:57.220Z,95.57
2022-09-28T11:03:25.857Z,94.24
2022-09-28T11:06:07.510Z,93.52
2022-09-28T11:08:42.873Z,89.99
2022-09-28T11:11:16.906Z,90.88
2022-09-28T11:14:21.037Z,93.11
2022-09-28T11:16:47.505Z,90.65
2022-09-28T11:19:20.666Z,91.75
2022-09-28T11:21:47.134Z,91.01
2022-09-28T11:24:22.077Z,90.03
2022-09-28T11:26:52.891Z,90.87
2022-09-28T11:29:42.189Z,92.40
2022-09-28T11:32:14.887Z,90.97
2022-09-28T11:34:59.092Z,88.98
2022-09-28T11:37:52.880Z,87.52
2022-09-28T11:40:25.132Z,88.65
2022-09-28T11:43:15.937Z,82.11
2022-09-28T11:45:52.485Z,80.57
2022-09-28T11:48:24.049Z,81.09
2022-09-28T11:50:58.721Z,79.63
2022-09-28T11:53:30.978Z,79.75
2022-09-28T11:56:28.342Z,78.51
2022-09-28T11:59:06.656Z,75.98
2022-09-28T12:01:52.335Z,77.64
2022-09-28T12:04:26.606Z,77.19
2022-09-28T12:06:58.301Z,75.25
2022-09-28T12:09:36.184Z,74.97
2022-09-28T12:12:10.391Z,71.54
2022-09-28T12:14:40.007Z,71.56
2022-09-28T12:17:28.924Z,70.22
2022-09-28T12:20:01.712Z,70.28
2022-09-28T12:22:42.283Z,70.86
2022-09-28T12:25:13.513Z,72.07
2022-09-28T12:28:01.701Z,71.28
2022-09-28T12:30:32.485Z,69.20
2022-09-28T12:33:13.836Z,67.54
2022-09-28T12:35:57.055Z,66.79
2022-09-28T12:38:23.426Z,66.89
2022-09-28T12:40:59.103Z,65.18
2022-09-28T12:43:34.596Z,65.12
2022-09-28T12:46:30.583Z,64.73
2022-09-28T12:52:12.753Z,67.02
2022-09-28T12:55:05.333Z,67.20
2022-09-28T12:57:40.274Z,66.99
2022-09-28T13:00:15.799Z,68.04
2022-09-28T13:03:07.866Z,68.12
2022-09-28T13:05:55.763Z,68.29
2022-09-28T13:08:41.361Z,66.00
2022-09-28T13:11:34.157Z,66.83
2022-09-28T13:14:28.336Z,68.43
2022-09-28T13:17:11.019Z,68.15
2022-09-28T13:19:51.670Z,68.13
2022-09-28T13:22:27.098Z,70.07
2022-09-28T13:24:55.870Z,70.73
2022-09-28T13:27:34.859Z,68.80
2022-09-28T13:30:03.905Z,69.25
2022-09-28T13:32:31.494Z,68.17
2022-09-28T13:34:58.748Z,68.19
2022-09-28T13:37:25.862Z,68.93
2022-09-28T13:39:59.408Z,67.42
2022-09-28T13:42:44.628Z,67.42
2022-09-28T13:45:20.040Z,69.36
2022-09-28T13:48:16.572Z,69.62
2022-09-28T13:50:56.878Z,69.45
2022-09-28T13:53:45.175Z,70.19
2022-09-28T13:56:20.436Z,73.10
2022-09-28T13:58:51.496Z,69.80
2022-09-28T14:01:22.047Z,67.44
2022-09-28T14:03:54.981Z,66.97
2022-09-28T14:06:31.906Z,68.68
2022-09-28T14:09:18.684Z,67.71
2022-09-28T14:12:27.682Z,66.77
2022-09-28T14:14:54.256Z,67.71
2022-09-28T14:17:23.658Z,67.19
2022-09-28T14:20:09.129Z,68.67
2022-09-28T14:22:44.889Z,68.15
2022-09-28T14:25:11.400Z,68.98
2022-09-28T14:27:41.936Z,68.24
2022-09-28T14:30:24.933Z,68.40
2022-09-28T14:32:55.285Z,68.29
2022-09-28T14:35:27.824Z,68.67
2022-09-28T14:38:17.990Z,69.43
2022-09-28T14:41:12.706Z,69.84
2022-09-28T14:43:45.183Z,69.30
2022-09-28T14:46:11.666Z,69.17
2022-09-28T14:48:45.929Z,69.48
2022-09-28T14:51:35.452Z,69.82
2022-09-28T14:54:08.245Z,69.02
2022-09-28T14:56:57.144Z,69.53
2022-09-28T14:59:24.932Z,68.81
2022-09-28T15:01:57.764Z,68.96
2022-09-28T15:04:28.119Z,68.65
2022-09-28T15:06:54.864Z,69.43
2022-09-28T15:09:38.262Z,69.85
2022-09-28T15:12:12.168Z,71.34
2022-09-28T15:14:55.278Z,70.80
2022-09-28T15:17:38.532Z,71.36
2022-09-28T15:20:17.265Z,71.92
2022-09-28T15:22:48.821Z,72.76
2022-09-28T15:25:19.986Z,71.65
2022-09-28T15:27:52.600Z,71.34
2022-09-28T15:30:22.941Z,71.35
2022-09-28T15:32:49.893Z,71.09
2022-09-28T15:35:20.951Z,72.01
2022-09-28T15:37:54.890Z,71.36
2022-09-28T15:40:27.088Z,71.32
2022-09-28T15:42:59.197Z,70.28
2022-09-28T15:45:34.958Z,69.56
2022-09-28T15:48:31.052Z,70.00
2022-09-28T15:51:10.845Z,71.48
2022-09-28T15:54:02.106Z,71.03
2022-09-28T15:56:29.418Z,71.97
2022-09-28T15:59:10.955Z,73.11
2022-09-28T16:01:39.723Z,73.17
2022-09-28T16:04:32.818Z,72.00
2022-09-28T16:07:18.436Z,73.51
2022-09-28T16:10:13.606Z,73.07
2022-09-28T16:12:39.945Z,74.38
2022-09-28T16:15:25.139Z,72.91
2022-09-28T16:17:55.867Z,73.62
2022-09-28T16:20:32.131Z,74.86
2022-09-28T16:23:05.896Z,75.52
2022-09-28T16:25:35.808Z,74.09
2022-09-28T16:28:02.247Z,73.39
2022-09-28T16:30:33.613Z,73.13
2022-09-28T16:33:05.675Z,79.25
2022-09-28T16:35:34.763Z,78.01
2022-09-28T16:38:14.349Z,81.87
2022-09-28T16:40:42.664Z,81.89
2022-09-28T16:43:17.535Z,83.15
2022-09-28T16:45:44.176Z,82.66
2022-09-28T16:48:16.329Z,82.86
2022-09-28T16:50:42.988Z,82.94
2022-09-28T16:53:35.806Z,83.57
2022-09-28T16:56:03.642Z,84.80
2022-09-28T16:58:31.495Z,84.54
2022-09-28T17:06:31.381Z,85.47
2022-09-28T17:08:58.698Z,85.42
2022-09-28T17:17:06.718Z,86.40
2022-09-28T17:19:31.335Z,84.90
2022-09-28T17:21:57.863Z,86.06
2022-09-28T17:24:24.308Z,86.63
2022-09-28T17:26:51.770Z,86.45
2022-09-28T17:29:18.936Z,87.00
2022-09-28T17:31:46.558Z,87.22
2022-09-28T17:34:16.750Z,88.35
2022-09-28T17:36:43.455Z,88.43
2022-09-28T17:39:14.672Z,88.67
2022-09-28T17:41:41.477Z,88.83
2022-09-28T17:44:08.678Z,89.81
2022-09-28T17:46:39.489Z,89.24
2022-09-28T17:49:07.543Z,89.30
2022-09-28T17:51:37.482Z,89.59
2022-09-28T17:54:06.575Z,89.80
2022-09-28T17:56:33.118Z,89.89
2022-09-28T17:59:07.768Z,91.05
2022-09-28T18:01:37.812Z,90.82
2022-09-28T18:04:08.125Z,90.79
2022-09-28T18:06:35.085Z,91.01
2022-09-28T18:09:03.112Z,91.78
2022-09-28T18:11:30.600Z,91.18
2022-09-28T18:13:58.236Z,91.50
2022-09-28T18:16:28.534Z,92.02
2022-09-28T18:18:55.551Z,91.50
2022-09-28T18:21:22.081Z,90.79
2022-09-28T18:23:51.604Z,91.22
2022-09-28T18:26:21.256Z,91.68
2022-09-28T18:28:47.809Z,91.45
2022-09-28T18:31:15.635Z,91.87
2022-09-28T18:33:43.307Z,91.90
2022-09-28T18:36:09.878Z,92.28
2022-09-28T18:38:36.958Z,92.31
2022-09-28T18:41:11.974Z,93.54
2022-09-28T18:43:38.556Z,90.23
2022-09-28T18:46:07.431Z,90.32
2022-09-28T18:48:34.076Z,91.45
2022-09-28T18:51:00.540Z,91.87
2022-09-28T18:53:27.139Z,92.20
2022-09-28T18:55:53.726Z,91.70
2022-09-28T18:58:20.171Z,92.54
2022-09-28T19:00:46.644Z,92.60
2022-09-28T19:03:14.410Z,92.84
2022-09-28T19:05:42.593Z,93.30
2022-09-28T19:08:09.917Z,93.03
2022-09-28T19:10:36.688Z,93.13
2022-09-28T19:13:03.181Z,92.87
2022-09-28T19:15:29.697Z,93.10
2022-09-28T19:17:57.123Z,92.85
2022-09-28T19:20:23.637Z,93.21
2022-09-28T19:22:50.762Z,92.60
2022-09-28T19:25:17.415Z,93.31
2022-09-28T19:27:44.279Z,92.84
2022-09-28T19:30:11.253Z,92.48
2022-09-28T19:32:37.921Z,92.48
2022-09-28T19:35:05.142Z,91.98
2022-09-28T19:37:35.413Z,93.29
2022-09-28T19:40:05.830Z,93.30
2022-09-28T19:42:32.814Z,92.47
2022-09-28T19:44:59.455Z,92.57
2022-09-28T19:47:26.077Z,92.33
2022-09-28T19:49:53.494Z,92.15
2022-09-28T19:52:20.005Z,91.30
2022-09-28T19:54:58.697Z,90.97
2022-09-28T19:57:30.580Z,90.99
2022-09-28T20:00:02.131Z,91.42
2022-09-28T20:02:29.608Z,90.89
2022-09-28T20:04:56.170Z,91.41
2022-09-28T20:07:22.661Z,91.22
2022-09-28T20:09:49.160Z,90.57
2022-09-28T20:12:15.751Z,90.92
2022-09-28T20:14:42.275Z,91.10
2022-09-28T20:17:09.678Z,91.49
2022-09-28T20:19:36.190Z,92.06
2022-09-28T20:22:03.163Z,92.05
2022-09-28T20:24:31.360Z,91.44
2022-09-28T20:27:00.125Z,91.09
2022-09-28T20:29:26.774Z,91.43
2022-09-28T20:31:54.992Z,91.06
2022-09-28T20:34:21.508Z,90.31
2022-09-28T20:36:48.664Z,91.35
2022-09-28T20:39:15.479Z,89.80
2022-09-28T20:41:42.413Z,90.69
2022-09-28T20:44:09.583Z,90.08
2022-09-28T20:46:36.901Z,90.34
2022-09-28T20:49:04.599Z,91.28
2022-09-28T20:51:31.672Z,91.51
2022-09-28T20:53:58.882Z,91.13
2022-09-28T20:56:30.704Z,92.50
2022-09-28T20:58:57.515Z,92.47
2022-09-28T21:01:29.844Z,91.40
2022-09-28T21:03:58.063Z,92.51
2022-09-28T21:06:29.826Z,92.57
2022-09-28T21:08:56.684Z,92.31
2022-09-28T21:11:24.700Z,92.87
2022-09-28T21:13:57.220Z,93.07
2022-09-28T21:16:24.646Z,91.88
2022-09-28T21:18:51.192Z,91.09
2022-09-28T21:21:21.374Z,92.39
2022-09-28T21:23:48.163Z,90.25
2022-09-28T21:26:25.040Z,88.77
2022-09-28T21:28:53.846Z,90.12
2022-09-28T21:31:26.085Z,89.55
2022-09-28T21:33:55.269Z,90.87
2022-09-28T21:36:21.822Z,90.52
2022-09-28T21:38:48.290Z,91.58
2022-09-28T21:41:15.058Z,92.22
2022-09-28T21:43:41.512Z,92.73
2022-09-28T21:46:07.983Z,92.65
2022-09-28T21:48:34.493Z,90.20
2022-09-28T21:51:06.179Z,90.42
2022-09-28T21:53:35.067Z,91.20
2022-09-28T21:56:02.359Z,90.95
2022-09-28T21:58:31.154Z,91.28
2022-09-28T22:01:06.852Z,90.61
2022-09-28T22:03:35.258Z,90.85
2022-09-28T22:06:03.294Z,91.99
2022-09-28T22:08:29.856Z,92.24
2022-09-28T22:11:06.739Z,93.00
2022-09-28T22:13:40.311Z,92.42
2022-09-28T22:16:07.436Z,92.04
2022-09-28T22:18:34.513Z,92.31
2022-09-28T22:21:12.030Z,91.93
2022-09-28T22:23:39.119Z,90.37
2022-09-28T22:26:11.132Z,92.14
2022-09-28T22:28:38.182Z,93.65
2022-09-28T22:31:04.829Z,95.03
2022-09-28T22:33:31.531Z,94.31
2022-09-28T22:35:57.997Z,93.11
2022-09-28T22:38:24.921Z,94.50
2022-09-28T22:40:54.613Z,94.75
2022-09-28T22:43:23.405Z,93.76
2022-09-28T22:45:50.235Z,93.62
2022-09-28T22:48:18.574Z,94.35
2022-09-28T22:50:51.573Z,94.27
2022-09-28T22:53:18.875Z,94.91
2022-09-28T22:55:45.558Z,92.96
2022-09-28T22:58:12.246Z,92.34
2022-09-28T23:00:38.719Z,92.02
2022-09-28T23:03:05.367Z,93.08
2022-09-28T23:05:31.996Z,92.95
2022-09-28T23:07:58.461Z,93.21
2022-09-28T23:10:24.935Z,93.20
2022-09-28T23:12:53.467Z,94.22
2022-09-28T23:15:20.992Z,95.04
2022-09-28T23:17:53.995Z,94.42
2022-09-28T23:20:21.175Z,94.60
2022-09-28T23:22:48.023Z,93.90
2022-09-28T23:25:17.713Z,92.81
2022-09-28T23:27:48.763Z,93.02
2022-09-28T23:30:16.831Z,92.14
2022-09-28T23:32:44.932Z,92.16
2022-09-28T23:35:11.818Z,91.54
2022-09-28T23:37:38.784Z,92.17
2022-09-28T23:40:06.260Z,90.71
2022-09-28T23:42:34.696Z,90.96
2022-09-28T23:45:03.592Z,91.60
2022-09-28T23:47:30.069Z,91.35
2022-09-28T23:49:56.545Z,92.31
2022-09-28T23:52:23.004Z,92.93
2022-09-28T23:54:50.514Z,91.99
2022-09-28T23:57:16.960Z,92.72
2022-09-28T23:59:43.407Z,92.47
